createdAt,value
2022-12-07T00:00:13.408Z,43.30
2022-12-07T00:00:45.624Z,43.16
2022-12-07T00:01:22.050Z,43.59
2022-12-07T00:01:56.917Z,43.50
2022-12-07T00:02:29.270Z,43.52
2022-12-07T00:03:04.262Z,43.16
2022-12-07T00:03:37.373Z,43.15
2022-12-07T00:04:14.937Z,43.17
2022-12-07T00:04:47.153Z,43.32
2022-12-07T00:05:19.379Z,43.25
2022-12-07T00:05:54.183Z,43.15
2022-12-07T00:06:26.395Z,43.57
2022-12-07T00:06:58.809Z,43.43
2022-12-07T00:07:33.767Z,43.47
2022-12-07T00:08:06.178Z,43.34
2022-12-07T00:08:38.972Z,43.10
2022-12-07T00:09:15.769Z,43.52
2022-12-07T00:09:47.981Z,43.28
2022-12-07T00:10:20.209Z,43.28
2022-12-07T00:10:55.038Z,43.18
2022-12-07T00:11:27.449Z,43.47
2022-12-07T00:12:02.249Z,43.37
2022-12-07T00:12:34.449Z,43.35
2022-12-07T00:13:06.661Z,43.52
2022-12-07T00:13:42.143Z,43.18
2022-12-07T00:14:16.264Z,43.43
2022-12-07T00:14:48.540Z,43.37
2022-12-07T00:15:23.387Z,43.45
2022-12-07T00:15:55.598Z,43.40
2022-12-07T00:16:30.025Z,43.59
2022-12-07T00:17:07.468Z,43.45
2022-12-07T00:17:39.737Z,43.16
2022-12-07T00:18:12.028Z,43.12
2022-12-07T00:18:47.583Z,43.30
2022-12-07T00:19:20.192Z,43.57
2022-12-07T00:19:52.444Z,43.25
2022-12-07T00:20:27.257Z,43.50
2022-12-07T00:21:02.671Z,43.26
2022-12-07T00:21:36.395Z,43.24
2022-12-07T00:22:11.272Z,43.30
2022-12-07T00:22:43.552Z,43.16
2022-12-07T00:23:15.760Z,43.28
2022-12-07T00:23:52.460Z,43.06
2022-12-07T00:24:24.715Z,43.42
2022-12-07T00:24:56.912Z,43.25
2022-12-07T00:25:31.795Z,43.41
2022-12-07T00:26:07.487Z,43.11
2022-12-07T00:26:41.409Z,43.31
2022-12-07T00:27:16.492Z,43.18
2022-12-07T00:27:48.802Z,43.09
2022-12-07T00:28:21.012Z,43.27
2022-12-07T00:28:57.092Z,43.04
2022-12-07T00:29:29.361Z,43.45
2022-12-07T00:30:01.757Z,43.20
2022-12-07T00:30:36.691Z,43.11
2022-12-07T00:31:10.342Z,43.39
2022-12-07T00:31:45.278Z,43.06
2022-12-07T00:32:20.153Z,43.37
2022-12-07T00:32:54.976Z,43.15
2022-12-07T00:33:29.643Z,43.45
2022-12-07T00:34:02.378Z,43.48
2022-12-07T00:34:37.208Z,43.40
2022-12-07T00:35:09.899Z,43.14
2022-12-07T00:35:42.122Z,43.36
2022-12-07T00:36:23.060Z,43.10
2022-12-07T00:36:58.475Z,43.45
2022-12-07T00:37:30.684Z,43.20
2022-12-07T00:38:05.512Z,43.18
2022-12-07T00:38:39.035Z,43.40
2022-12-07T00:39:11.382Z,43.22
2022-12-07T00:39:46.212Z,43.25
2022-12-07T00:40:18.632Z,43.40
2022-12-07T00:40:56.017Z,43.36
2022-12-07T00:41:31.806Z,43.06
2022-12-07T00:42:04.211Z,43.47
2022-12-07T00:42:36.423Z,43.48
2022-12-07T00:43:11.215Z,43.64
2022-12-07T00:43:44.270Z,43.30
2022-12-07T00:44:19.087Z,43.37
2022-12-07T00:44:51.288Z,43.09
2022-12-07T00:45:23.503Z,43.17
2022-12-07T00:45:58.739Z,43.52
2022-12-07T00:46:31.429Z,43.18
2022-12-07T00:47:03.788Z,43.25
2022-12-07T00:47:41.193Z,43.30
2022-12-07T00:48:13.424Z,43.56
2022-12-07T00:48:45.752Z,43.18
2022-12-07T00:49:20.550Z,43.30
2022-12-07T00:49:52.771Z,43.16
2022-12-07T00:50:24.997Z,43.48
2022-12-07T00:50:59.827Z,43.22
2022-12-07T00:51:32.060Z,43.61
2022-12-07T00:52:07.275Z,43.34
2022-12-07T00:52:39.481Z,43.24
2022-12-07T00:53:11.723Z,43.57
2022-12-07T00:53:46.595Z,43.20
2022-12-07T00:54:18.812Z,43.38
2022-12-07T00:54:51.011Z,43.25
2022-12-07T00:55:25.824Z,43.41
2022-12-07T00:55:58.175Z,43.41
2022-12-07T00:56:33.254Z,43.60
2022-12-07T00:57:05.488Z,43.19
2022-12-07T00:57:37.746Z,43.26
2022-12-07T00:58:12.664Z,43.51
2022-12-07T00:58:45.297Z,43.40
2022-12-07T00:59:17.537Z,43.66
2022-12-07T00:59:56.281Z,43.43
2022-12-07T01:00:28.548Z,43.28
2022-12-07T01:01:01.948Z,43.43
2022-12-07T01:01:38.780Z,43.51
2022-12-07T01:02:11.068Z,43.13
2022-12-07T01:02:45.998Z,43.23
2022-12-07T01:03:21.257Z,43.62
2022-12-07T01:03:53.757Z,43.62
2022-12-07T01:04:25.985Z,43.57
2022-12-07T01:05:00.803Z,43.52
2022-12-07T01:05:33.075Z,43.42
2022-12-07T01:06:05.852Z,43.32
2022-12-07T01:06:40.667Z,43.53
2022-12-07T01:07:12.899Z,43.20
2022-12-07T01:07:45.186Z,43.25
2022-12-07T01:08:17.584Z,43.48
2022-12-07T01:08:52.900Z,43.40
2022-12-07T01:09:25.145Z,43.41
2022-12-07T01:09:57.360Z,43.50
2022-12-07T01:10:32.834Z,43.33
2022-12-07T01:11:06.721Z,43.47
2022-12-07T01:11:38.990Z,43.52
2022-12-07T01:12:13.840Z,43.37
2022-12-07T01:12:46.057Z,43.20
2022-12-07T01:13:18.282Z,43.17
2022-12-07T01:13:54.383Z,43.34
2022-12-07T01:14:26.620Z,43.61
2022-12-07T01:14:58.832Z,43.23
2022-12-07T01:15:33.636Z,43.57
2022-12-07T01:16:07.044Z,43.55
2022-12-07T01:16:42.940Z,43.28
2022-12-07T01:17:15.303Z,43.29
2022-12-07T01:17:50.300Z,43.57
2022-12-07T01:18:25.119Z,43.28
2022-12-07T01:18:58.508Z,43.23
2022-12-07T01:19:33.317Z,43.61
2022-12-07T01:20:07.272Z,43.60
2022-12-07T01:20:39.503Z,43.41
2022-12-07T01:21:16.284Z,43.49
2022-12-07T01:21:48.504Z,43.55
2022-12-07T01:22:20.810Z,43.37
2022-12-07T01:22:55.611Z,43.61
2022-12-07T01:23:27.933Z,43.63
2022-12-07T01:24:00.148Z,43.30
2022-12-07T01:24:34.959Z,43.54
2022-12-07T01:25:08.133Z,43.68
2022-12-07T01:25:40.401Z,43.66
2022-12-07T01:26:14.888Z,43.42
2022-12-07T01:26:49.697Z,43.59
2022-12-07T01:27:22.076Z,43.28
2022-12-07T01:27:54.276Z,43.28
2022-12-07T01:28:29.140Z,43.39
2022-12-07T01:29:01.968Z,43.57
2022-12-07T01:29:36.892Z,43.14
2022-12-07T01:30:11.300Z,43.22
2022-12-07T01:30:43.547Z,43.66
2022-12-07T01:31:20.179Z,43.64
2022-12-07T01:31:52.485Z,43.57
2022-12-07T01:32:24.800Z,43.17
2022-12-07T01:33:02.256Z,43.14
2022-12-07T01:33:36.153Z,43.45
2022-12-07T01:34:09.276Z,43.57
2022-12-07T01:34:44.108Z,43.58
2022-12-07T01:35:16.587Z,43.39
2022-12-07T01:35:48.796Z,43.46
2022-12-07T01:36:25.264Z,43.18
2022-12-07T01:36:57.849Z,43.58
2022-12-07T01:37:35.564Z,43.41
2022-12-07T01:38:10.372Z,43.27
2022-12-07T01:38:43.174Z,43.20
2022-12-07T01:39:18.069Z,43.14
2022-12-07T01:39:50.352Z,43.13
2022-12-07T01:40:22.591Z,43.13
2022-12-07T01:41:00.642Z,43.26
2022-12-07T01:41:35.815Z,43.55
2022-12-07T01:42:10.313Z,43.17
2022-12-07T01:42:45.157Z,43.32
2022-12-07T01:43:18.971Z,43.36
2022-12-07T01:44:26.343Z,43.32
2022-12-07T01:45:28.528Z,43.37
2022-12-07T01:46:01.577Z,43.12
2022-12-07T01:46:36.526Z,43.47
2022-12-07T01:47:08.756Z,43.08
2022-12-07T01:47:41.540Z,43.24
2022-12-07T01:48:22.364Z,43.64
2022-12-07T01:48:54.586Z,43.28
2022-12-07T01:49:31.101Z,43.63
2022-12-07T01:50:06.407Z,43.58
2022-12-07T01:50:39.590Z,43.34
2022-12-07T01:51:13.556Z,43.27
2022-12-07T01:51:49.910Z,43.19
2022-12-07T01:52:24.334Z,43.30
2022-12-07T01:52:58.188Z,43.54
2022-12-07T01:53:34.072Z,43.39
2022-12-07T01:54:06.377Z,43.62
2022-12-07T01:54:38.705Z,43.35
2022-12-07T01:55:16.481Z,43.16
2022-12-07T01:55:51.176Z,43.64
2022-12-07T01:56:26.557Z,43.17
2022-12-07T01:57:02.328Z,43.55
2022-12-07T01:57:36.662Z,43.61
2022-12-07T01:58:09.849Z,43.22
2022-12-07T01:58:44.676Z,43.61
2022-12-07T01:59:18.249Z,43.21
2022-12-07T01:59:55.123Z,43.50
2022-12-07T02:00:27.358Z,43.54
2022-12-07T02:00:59.735Z,43.25
2022-12-07T02:01:34.631Z,43.47
2022-12-07T02:02:11.833Z,43.25
2022-12-07T02:02:47.540Z,43.42
2022-12-07T02:03:28.248Z,43.39
2022-12-07T02:04:00.590Z,43.64
2022-12-07T02:04:33.004Z,43.50
2022-12-07T02:05:07.352Z,43.32
2022-12-07T02:05:44.520Z,43.37
2022-12-07T02:06:18.964Z,43.13
2022-12-07T02:06:54.817Z,43.48
2022-12-07T02:07:28.412Z,43.50
2022-12-07T02:08:00.998Z,43.28
2022-12-07T02:08:36.275Z,43.32
2022-12-07T02:09:08.488Z,43.24
2022-12-07T02:09:43.306Z,43.42
2022-12-07T02:10:16.919Z,43.54
2022-12-07T02:10:49.148Z,43.25
2022-12-07T02:11:24.347Z,43.24
2022-12-07T02:11:56.876Z,43.54
2022-12-07T02:12:29.160Z,43.30
2022-12-07T02:13:04.319Z,43.61
2022-12-07T02:13:40.297Z,43.16
2022-12-07T02:14:12.569Z,43.57
2022-12-07T02:14:44.808Z,43.26
2022-12-07T02:15:19.925Z,43.54
2022-12-07T02:16:10.481Z,43.22
2022-12-07T02:16:52.676Z,43.62
2022-12-07T02:17:32.711Z,43.51
2022-12-07T02:18:08.477Z,43.56
2022-12-07T02:18:55.229Z,43.34
2022-12-07T02:19:57.205Z,43.62
2022-12-07T02:20:34.418Z,43.50
2022-12-07T02:21:10.383Z,43.24
2022-12-07T02:21:50.187Z,43.52
2022-12-07T02:22:38.074Z,43.76
2022-12-07T02:23:39.712Z,43.30
2022-12-07T02:24:35.000Z,43.35
2022-12-07T02:25:10.057Z,43.65
2022-12-07T02:25:57.988Z,43.51
2022-12-07T02:26:49.697Z,43.69
2022-12-07T02:27:34.065Z,43.42
2022-12-07T02:28:11.147Z,43.62
2022-12-07T02:28:57.818Z,43.70
2022-12-07T02:29:33.388Z,43.40
2022-12-07T02:30:09.412Z,43.66
2022-12-07T02:30:44.714Z,43.57
2022-12-07T02:31:20.644Z,43.60
2022-12-07T02:32:00.743Z,43.30
2022-12-07T02:32:42.428Z,43.35
2022-12-07T02:33:21.629Z,43.54
2022-12-07T02:33:58.588Z,43.76
2022-12-07T02:34:36.093Z,43.56
2022-12-07T02:35:13.788Z,43.76
2022-12-07T02:35:49.692Z,43.55
2022-12-07T02:36:24.878Z,43.54
2022-12-07T02:37:03.548Z,43.76
2022-12-07T02:37:38.959Z,43.71
2022-12-07T02:38:17.768Z,43.51
2022-12-07T02:38:55.340Z,43.49
2022-12-07T02:39:35.098Z,43.79
2022-12-07T02:40:13.060Z,43.42
2022-12-07T02:40:48.527Z,43.29
2022-12-07T02:41:24.274Z,43.56
2022-12-07T02:42:01.067Z,43.70
2022-12-07T02:42:38.142Z,43.44
2022-12-07T02:43:18.265Z,43.71
2022-12-07T02:43:55.496Z,43.40
2022-12-07T02:44:29.050Z,43.40
2022-12-07T02:45:04.866Z,43.47
2022-12-07T02:45:39.604Z,43.66
2022-12-07T02:46:16.796Z,43.32
2022-12-07T02:46:52.652Z,43.24
2022-12-07T02:47:26.007Z,43.37
2022-12-07T02:48:03.038Z,43.25
2022-12-07T02:48:35.519Z,43.30
2022-12-07T02:49:08.573Z,43.56
2022-12-07T02:49:43.861Z,43.67
2022-12-07T02:50:16.145Z,43.37
2022-12-07T02:50:52.829Z,43.23
2022-12-07T02:51:25.980Z,43.61
2022-12-07T02:51:58.212Z,43.64
2022-12-07T02:52:33.040Z,43.33
2022-12-07T02:53:05.291Z,43.28
2022-12-07T02:53:39.572Z,43.62
2022-12-07T02:54:15.890Z,43.32
2022-12-07T02:54:48.435Z,43.41
2022-12-07T02:55:24.856Z,43.35
2022-12-07T02:55:59.942Z,43.66
2022-12-07T02:56:37.447Z,43.55
2022-12-07T02:57:21.053Z,43.10
2022-12-07T02:58:16.416Z,43.23
2022-12-07T02:59:00.795Z,43.50
2022-12-07T02:59:44.455Z,43.66
2022-12-07T03:00:17.673Z,43.64
2022-12-07T03:00:55.792Z,43.28
2022-12-07T03:01:35.443Z,43.37
2022-12-07T03:02:16.631Z,43.34
2022-12-07T03:02:54.593Z,43.54
2022-12-07T03:03:29.848Z,43.37
2022-12-07T03:04:11.616Z,43.32
2022-12-07T03:04:50.130Z,43.60
2022-12-07T03:05:47.612Z,43.31
2022-12-07T03:06:25.422Z,43.29
2022-12-07T03:07:05.725Z,43.58
2022-12-07T03:07:44.459Z,43.57
2022-12-07T03:08:25.963Z,43.17
2022-12-07T03:09:05.198Z,43.38
2022-12-07T03:09:41.235Z,43.54
2022-12-07T03:10:21.079Z,43.41
2022-12-07T03:10:59.233Z,43.39
2022-12-07T03:11:38.927Z,43.38
2022-12-07T03:12:13.917Z,43.62
2022-12-07T03:12:50.120Z,43.54
2022-12-07T03:13:28.415Z,43.56
2022-12-07T03:14:08.579Z,43.22
2022-12-07T03:14:43.441Z,43.55
2022-12-07T03:15:24.429Z,43.23
2022-12-07T03:15:59.920Z,43.54
2022-12-07T03:16:35.263Z,43.56
2022-12-07T03:17:13.492Z,43.38
2022-12-07T03:17:47.628Z,43.65
2022-12-07T03:18:22.156Z,43.40
2022-12-07T03:18:59.820Z,43.17
2022-12-07T03:19:33.233Z,43.27
2022-12-07T03:20:08.797Z,43.57
2022-12-07T03:20:45.211Z,43.51
2022-12-07T03:21:19.510Z,43.26
2022-12-07T03:21:56.202Z,43.62
2022-12-07T03:22:33.656Z,43.37
2022-12-07T03:23:07.602Z,43.22
2022-12-07T03:23:42.417Z,43.54
2022-12-07T03:24:21.107Z,43.13
2022-12-07T03:24:56.065Z,43.24
2022-12-07T03:25:29.453Z,43.28
2022-12-07T03:26:05.107Z,43.30
2022-12-07T03:26:38.779Z,43.32
2022-12-07T03:27:15.132Z,43.65
2022-12-07T03:27:57.009Z,43.58
2022-12-07T03:28:33.373Z,43.61
2022-12-07T03:29:12.296Z,43.28
2022-12-07T03:29:50.464Z,43.64
2022-12-07T03:30:24.448Z,43.32
2022-12-07T03:30:58.763Z,44.18
2022-12-07T03:31:35.716Z,44.66
2022-12-07T03:32:11.713Z,44.62
2022-12-07T03:32:46.263Z,44.51
2022-12-07T03:33:24.634Z,44.16
2022-12-07T03:34:00.490Z,43.90
2022-12-07T03:34:35.803Z,43.55
2022-12-07T03:35:17.113Z,43.17
2022-12-07T03:35:52.440Z,42.99
2022-12-07T03:36:28.334Z,43.09
2022-12-07T03:37:06.645Z,43.07
2022-12-07T03:37:42.305Z,42.61
2022-12-07T03:38:17.931Z,42.57
2022-12-07T03:38:56.839Z,42.19
2022-12-07T03:39:32.527Z,42.50
2022-12-07T03:40:12.797Z,42.09
2022-12-07T03:40:53.442Z,41.89
2022-12-07T03:41:28.468Z,42.04
2022-12-07T03:42:02.771Z,41.90
2022-12-07T03:42:37.917Z,41.85
2022-12-07T03:43:10.160Z,41.55
2022-12-07T03:43:42.916Z,41.88
2022-12-07T03:44:20.823Z,41.56
2022-12-07T03:44:53.155Z,41.42
2022-12-07T03:45:29.560Z,41.53
2022-12-07T03:46:11.217Z,41.39
2022-12-07T03:46:45.660Z,41.64
2022-12-07T03:47:24.062Z,41.31
2022-12-07T03:48:05.464Z,41.45
2022-12-07T03:48:40.963Z,41.42
2022-12-07T03:49:20.446Z,41.43
2022-12-07T03:49:56.071Z,41.56
2022-12-07T03:50:32.164Z,41.11
2022-12-07T03:51:12.397Z,41.30
2022-12-07T03:51:47.169Z,41.18
2022-12-07T03:52:24.440Z,41.54
2022-12-07T03:53:02.379Z,41.39
2022-12-07T03:53:37.641Z,41.24
2022-12-07T03:54:15.036Z,41.04
2022-12-07T03:54:53.688Z,41.12
2022-12-07T03:55:29.465Z,41.14
2022-12-07T03:56:02.780Z,41.33
2022-12-07T03:56:38.101Z,41.13
2022-12-07T03:57:11.162Z,40.93
2022-12-07T03:57:44.565Z,41.26
2022-12-07T03:58:21.844Z,41.12
2022-12-07T03:58:54.543Z,40.91
2022-12-07T03:59:32.589Z,41.27
2022-12-07T04:00:07.132Z,41.08
2022-12-07T04:00:44.855Z,41.35
2022-12-07T04:01:21.449Z,41.11
2022-12-07T04:01:55.393Z,40.85
2022-12-07T04:02:28.976Z,40.78
2022-12-07T04:03:03.984Z,40.97
2022-12-07T04:03:36.328Z,40.97
2022-12-07T04:04:08.540Z,40.78
2022-12-07T04:04:43.589Z,40.98
2022-12-07T04:05:15.829Z,40.85
2022-12-07T04:05:48.316Z,40.87
2022-12-07T04:06:23.224Z,41.10
2022-12-07T04:06:55.462Z,40.67
2022-12-07T04:07:27.692Z,40.98
2022-12-07T04:08:02.627Z,40.82
2022-12-07T04:08:34.915Z,40.91
2022-12-07T04:09:07.175Z,41.12
2022-12-07T04:09:41.991Z,41.00
2022-12-07T04:10:14.407Z,40.69
2022-12-07T04:10:47.006Z,40.98
2022-12-07T04:11:22.007Z,40.69
2022-12-07T04:11:54.205Z,40.62
2022-12-07T04:12:26.445Z,41.09
2022-12-07T04:13:01.256Z,40.54
2022-12-07T04:13:53.510Z,40.83
2022-12-07T04:14:26.085Z,41.01
2022-12-07T04:15:03.532Z,41.02
2022-12-07T04:15:35.833Z,40.55
2022-12-07T04:16:08.835Z,40.92
2022-12-07T04:16:44.812Z,40.85
2022-12-07T04:17:17.284Z,40.94
2022-12-07T04:17:49.768Z,40.85
2022-12-07T04:18:24.589Z,40.79
2022-12-07T04:18:56.896Z,40.59
2022-12-07T04:19:30.969Z,40.71
2022-12-07T04:20:05.974Z,40.82
2022-12-07T04:20:38.208Z,40.89
2022-12-07T04:21:10.466Z,40.66
2022-12-07T04:21:45.278Z,41.03
2022-12-07T04:22:17.609Z,40.60
2022-12-07T04:22:49.995Z,40.61
2022-12-07T04:23:24.794Z,41.00
2022-12-07T04:23:57.003Z,41.00
2022-12-07T04:24:29.648Z,41.07
2022-12-07T04:25:04.484Z,40.80
2022-12-07T04:25:36.703Z,41.00
2022-12-07T04:26:08.918Z,40.96
2022-12-07T04:26:43.964Z,40.58
2022-12-07T04:27:16.204Z,40.63
2022-12-07T04:27:48.531Z,40.96
2022-12-07T04:28:23.354Z,40.59
2022-12-07T04:28:55.584Z,40.62
2022-12-07T04:29:28.105Z,40.70
2022-12-07T04:30:06.050Z,40.97
2022-12-07T04:30:38.339Z,40.91
2022-12-07T04:31:10.791Z,40.84
2022-12-07T04:31:45.958Z,40.63
2022-12-07T04:32:18.211Z,40.63
2022-12-07T04:32:50.472Z,41.01
2022-12-07T04:33:25.279Z,40.61
2022-12-07T04:33:57.531Z,40.57
2022-12-07T04:34:29.984Z,40.57
2022-12-07T04:35:04.813Z,40.97
2022-12-07T04:35:37.060Z,40.93
2022-12-07T04:36:09.388Z,40.92
2022-12-07T04:36:44.447Z,41.05
2022-12-07T04:37:17.144Z,40.65
2022-12-07T04:37:49.360Z,40.64
2022-12-07T04:38:24.230Z,40.62
2022-12-07T04:38:56.869Z,40.90
2022-12-07T04:39:30.684Z,40.57
2022-12-07T04:40:05.841Z,41.11
2022-12-07T04:40:38.116Z,41.01
2022-12-07T04:41:10.917Z,41.04
2022-12-07T04:41:45.712Z,41.02
2022-12-07T04:42:17.962Z,40.82
2022-12-07T04:42:50.200Z,40.91
2022-12-07T04:43:25.021Z,40.96
2022-12-07T04:43:58.020Z,40.62
2022-12-07T04:44:30.850Z,40.71
2022-12-07T04:45:09.710Z,40.61
2022-12-07T04:45:47.245Z,41.00
2022-12-07T04:46:19.505Z,41.01
2022-12-07T04:46:55.026Z,40.74
2022-12-07T04:47:27.391Z,41.03
2022-12-07T04:47:59.630Z,41.03
2022-12-07T04:48:34.490Z,40.79
2022-12-07T04:49:06.769Z,40.92
2022-12-07T04:49:39.027Z,40.93
2022-12-07T04:50:14.270Z,40.89
2022-12-07T04:50:49.704Z,40.94
2022-12-07T04:51:23.548Z,40.51
2022-12-07T04:51:58.497Z,40.64
2022-12-07T04:52:30.730Z,40.76
2022-12-07T04:53:05.554Z,40.65
2022-12-07T04:53:37.760Z,40.56
2022-12-07T04:54:10.010Z,40.98
2022-12-07T04:54:44.889Z,40.93
2022-12-07T04:55:17.177Z,40.47
2022-12-07T04:55:49.392Z,40.54
2022-12-07T04:56:21.885Z,40.58
2022-12-07T04:56:56.705Z,40.71
2022-12-07T04:57:28.931Z,40.74
2022-12-07T04:58:01.145Z,40.48
2022-12-07T04:58:35.947Z,40.63
2022-12-07T04:59:08.788Z,40.45
2022-12-07T04:59:45.831Z,40.60
2022-12-07T05:00:21.372Z,40.88
2022-12-07T05:00:55.698Z,40.81
2022-12-07T05:01:30.613Z,40.74
2022-12-07T05:02:02.950Z,40.48
2022-12-07T05:02:35.274Z,40.60
2022-12-07T05:03:10.199Z,40.43
2022-12-07T05:03:42.427Z,40.82
2022-12-07T05:04:14.684Z,40.92
2022-12-07T05:04:49.488Z,40.48
2022-12-07T05:05:21.727Z,40.46
2022-12-07T05:05:53.940Z,40.53
2022-12-07T05:06:28.941Z,40.72
2022-12-07T05:07:01.204Z,40.79
2022-12-07T05:07:33.511Z,40.93
2022-12-07T05:08:08.627Z,40.87
2022-12-07T05:08:40.958Z,40.80
2022-12-07T05:09:13.219Z,40.94
2022-12-07T05:09:48.052Z,40.64
2022-12-07T05:10:20.329Z,40.89
2022-12-07T05:10:52.555Z,40.52
2022-12-07T05:11:40.095Z,40.93
2022-12-07T05:12:14.949Z,40.48
2022-12-07T05:12:47.329Z,40.83
2022-12-07T05:13:19.551Z,40.98
2022-12-07T05:13:51.747Z,40.89
2022-12-07T05:14:26.648Z,40.50
2022-12-07T05:14:58.870Z,40.88
2022-12-07T05:15:33.672Z,40.48
2022-12-07T05:16:09.336Z,40.95
2022-12-07T05:16:42.146Z,40.48
2022-12-07T05:17:14.716Z,40.83
2022-12-07T05:17:49.556Z,40.86
2022-12-07T05:18:21.808Z,40.61
2022-12-07T05:18:54.062Z,40.48
2022-12-07T05:19:29.356Z,40.50
2022-12-07T05:20:01.982Z,40.44
2022-12-07T05:20:37.859Z,40.45
2022-12-07T05:21:17.001Z,40.40
2022-12-07T05:21:49.280Z,40.62
2022-12-07T05:22:21.521Z,40.52
2022-12-07T05:22:56.372Z,40.35
2022-12-07T05:23:28.585Z,40.40
2022-12-07T05:24:00.952Z,40.56
2022-12-07T05:24:35.818Z,40.74
2022-12-07T05:25:09.275Z,40.69
2022-12-07T05:25:41.523Z,40.38
2022-12-07T05:26:16.349Z,40.57
2022-12-07T05:26:48.606Z,40.82
2022-12-07T05:27:20.832Z,40.81
2022-12-07T05:27:55.672Z,40.76
2022-12-07T05:28:27.879Z,40.36
2022-12-07T05:29:00.131Z,40.54
2022-12-07T05:29:35.161Z,40.35
2022-12-07T05:30:08.760Z,40.38
2022-12-07T05:30:43.610Z,40.81
2022-12-07T05:31:18.455Z,40.57
2022-12-07T05:31:50.979Z,40.37
2022-12-07T05:32:23.267Z,40.50
2022-12-07T05:32:58.077Z,40.31
2022-12-07T05:33:30.297Z,40.63
2022-12-07T05:34:02.632Z,40.26
2022-12-07T05:34:37.456Z,40.35
2022-12-07T05:35:10.139Z,40.80
2022-12-07T05:35:42.365Z,40.30
2022-12-07T05:36:14.648Z,40.54
2022-12-07T05:36:50.329Z,40.36
2022-12-07T05:37:22.568Z,40.69
2022-12-07T05:37:54.776Z,40.68
2022-12-07T05:38:29.586Z,40.50
2022-12-07T05:39:01.897Z,40.28
2022-12-07T05:39:34.124Z,40.52
2022-12-07T05:40:10.380Z,40.43
2022-12-07T05:40:42.620Z,40.30
2022-12-07T05:41:31.698Z,40.46
2022-12-07T05:42:13.132Z,40.53
2022-12-07T05:42:47.943Z,40.35
2022-12-07T05:43:20.152Z,40.46
2022-12-07T05:43:52.360Z,40.34
2022-12-07T05:44:27.341Z,40.64
2022-12-07T05:44:59.548Z,40.52
2022-12-07T05:45:34.511Z,40.56
2022-12-07T05:46:09.404Z,40.57
2022-12-07T05:46:41.658Z,40.52
2022-12-07T05:47:17.713Z,40.80
2022-12-07T05:47:49.922Z,40.54
2022-12-07T05:48:22.252Z,40.64
2022-12-07T05:48:57.190Z,40.75
2022-12-07T05:49:29.461Z,40.59
2022-12-07T05:50:02.100Z,40.48
2022-12-07T05:50:37.144Z,40.83
2022-12-07T05:51:09.349Z,40.79
2022-12-07T05:51:41.609Z,40.91
2022-12-07T05:52:16.475Z,40.79
2022-12-07T05:52:48.697Z,40.42
2022-12-07T05:53:23.296Z,40.57
2022-12-07T05:53:58.425Z,40.37
2022-12-07T05:54:30.661Z,40.59
2022-12-07T05:55:05.489Z,40.37
2022-12-07T05:55:37.714Z,40.83
2022-12-07T05:56:09.948Z,40.64
2022-12-07T05:56:44.794Z,40.79
2022-12-07T05:57:17.061Z,40.42
2022-12-07T05:58:04.090Z,40.52
2022-12-07T05:58:51.408Z,40.38
2022-12-07T05:59:28.266Z,40.73
2022-12-07T06:00:01.017Z,40.39
2022-12-07T06:00:33.813Z,40.48
2022-12-07T06:01:08.679Z,40.09
2022-12-07T06:01:44.049Z,39.67
2022-12-07T06:02:17.590Z,39.62
2022-12-07T06:02:50.028Z,39.65
2022-12-07T06:03:25.064Z,40.11
2022-12-07T06:03:57.324Z,40.13
2022-12-07T06:04:33.832Z,40.01
2022-12-07T06:05:07.452Z,40.21
2022-12-07T06:05:39.670Z,40.42
2022-12-07T06:06:14.672Z,40.71
2022-12-07T06:06:47.477Z,40.65
2022-12-07T06:07:22.312Z,40.88
2022-12-07T06:07:54.596Z,40.88
2022-12-07T06:08:27.209Z,41.12
2022-12-07T06:09:02.108Z,41.46
2022-12-07T06:09:34.734Z,41.26
2022-12-07T06:10:10.928Z,41.60
2022-12-07T06:10:43.521Z,41.62
2022-12-07T06:11:30.725Z,41.54
2022-12-07T06:12:18.936Z,41.68
2022-12-07T06:12:51.181Z,41.97
2022-12-07T06:13:23.390Z,42.14
2022-12-07T06:13:58.210Z,42.21
2022-12-07T06:14:30.573Z,42.20
2022-12-07T06:15:05.413Z,41.97
2022-12-07T06:15:37.715Z,41.88
2022-12-07T06:16:12.660Z,42.02
2022-12-07T06:16:47.610Z,42.16
2022-12-07T06:17:19.928Z,42.12
2022-12-07T06:17:54.776Z,42.24
2022-12-07T06:18:27.020Z,42.50
2022-12-07T06:18:59.337Z,42.29
2022-12-07T06:19:34.223Z,42.69
2022-12-07T06:20:08.386Z,42.59
2022-12-07T06:20:40.638Z,42.72
2022-12-07T06:21:13.333Z,42.36
2022-12-07T06:21:48.208Z,42.53
2022-12-07T06:22:20.451Z,42.41
2022-12-07T06:22:52.746Z,42.75
2022-12-07T06:23:27.649Z,42.53
2022-12-07T06:23:59.858Z,42.34
2022-12-07T06:24:32.609Z,42.42
2022-12-07T06:25:08.865Z,42.51
2022-12-07T06:25:41.577Z,42.71
2022-12-07T06:26:13.816Z,42.53
2022-12-07T06:26:49.197Z,42.55
2022-12-07T06:27:21.476Z,42.77
2022-12-07T06:27:56.462Z,42.68
2022-12-07T06:28:28.731Z,42.84
2022-12-07T06:29:00.950Z,42.74
2022-12-07T06:29:35.818Z,42.55
2022-12-07T06:30:09.636Z,42.99
2022-12-07T06:30:41.917Z,42.75
2022-12-07T06:31:19.803Z,42.61
2022-12-07T06:31:52.395Z,42.90
2022-12-07T06:32:27.305Z,42.96
2022-12-07T06:32:59.516Z,42.87
2022-12-07T06:33:32.004Z,42.82
2022-12-07T06:34:08.867Z,42.70
2022-12-07T06:34:41.105Z,42.67
2022-12-07T06:35:13.336Z,43.18
2022-12-07T06:35:48.148Z,42.87
2022-12-07T06:36:25.507Z,42.49
2022-12-07T06:37:01.961Z,42.93
2022-12-07T06:37:34.223Z,42.69
2022-12-07T06:38:06.497Z,42.94
2022-12-07T06:38:41.647Z,42.72
2022-12-07T06:39:13.893Z,43.10
2022-12-07T06:39:48.707Z,42.87
2022-12-07T06:40:20.968Z,42.89
2022-12-07T06:40:53.215Z,42.92
2022-12-07T06:41:28.296Z,42.92
2022-12-07T06:42:00.973Z,43.14
2022-12-07T06:42:36.223Z,42.70
2022-12-07T06:43:09.077Z,42.68
2022-12-07T06:43:41.434Z,43.00
2022-12-07T06:44:16.340Z,43.00
2022-12-07T06:44:48.558Z,42.73
2022-12-07T06:45:23.393Z,42.73
2022-12-07T06:45:55.705Z,42.90
2022-12-07T06:46:30.750Z,42.80
2022-12-07T06:47:39.118Z,42.72
2022-12-07T06:47:58.748Z,42.58
2022-12-07T06:48:33.685Z,42.75
2022-12-07T06:49:06.795Z,42.78
2022-12-07T06:49:41.737Z,42.68
2022-12-07T06:50:13.956Z,42.74
2022-12-07T06:50:49.889Z,42.62
2022-12-07T06:51:29.138Z,42.75
2022-12-07T06:52:01.359Z,42.67
2022-12-07T06:52:34.009Z,42.91
2022-12-07T06:53:08.893Z,42.94
2022-12-07T06:53:41.112Z,42.80
2022-12-07T06:54:14.505Z,42.68
2022-12-07T06:54:49.320Z,43.09
2022-12-07T06:55:21.556Z,42.85
2022-12-07T06:55:53.781Z,43.00
2022-12-07T06:56:29.841Z,42.66
2022-12-07T06:57:02.064Z,42.79
2022-12-07T06:57:34.298Z,43.15
2022-12-07T06:58:09.217Z,43.08
2022-12-07T06:58:41.837Z,43.06
2022-12-07T06:59:16.904Z,42.92
2022-12-07T06:59:49.114Z,42.66
2022-12-07T07:00:22.610Z,42.77
2022-12-07T07:00:57.780Z,42.76
2022-12-07T07:01:32.707Z,42.82
2022-12-07T07:02:07.625Z,42.95
2022-12-07T07:02:39.921Z,42.77
2022-12-07T07:03:12.268Z,42.60
2022-12-07T07:03:47.210Z,42.91
2022-12-07T07:04:19.440Z,42.76
2022-12-07T07:04:54.260Z,42.93
2022-12-07T07:05:26.547Z,42.72
2022-12-07T07:06:01.381Z,42.75
2022-12-07T07:06:34.067Z,43.14
2022-12-07T07:07:08.959Z,43.25
2022-12-07T07:07:58.066Z,42.87
2022-12-07T07:08:36.029Z,42.82
2022-12-07T07:09:08.414Z,42.83
2022-12-07T07:09:40.680Z,42.78
2022-12-07T07:10:15.500Z,43.13
2022-12-07T07:10:47.740Z,43.10
2022-12-07T07:11:22.934Z,42.72
2022-12-07T07:11:55.332Z,42.86
2022-12-07T07:12:27.539Z,42.78
2022-12-07T07:13:02.341Z,42.73
2022-12-07T07:13:34.859Z,42.80
2022-12-07T07:14:09.713Z,43.15
2022-12-07T07:14:42.926Z,42.80
2022-12-07T07:15:15.217Z,43.09
2022-12-07T07:15:50.061Z,42.77
2022-12-07T07:16:22.365Z,42.91
2022-12-07T07:16:59.876Z,43.01
2022-12-07T07:17:32.096Z,43.06
2022-12-07T07:18:07.925Z,42.83
2022-12-07T07:18:43.020Z,42.89
2022-12-07T07:19:15.231Z,43.27
2022-12-07T07:19:47.474Z,43.11
2022-12-07T07:20:22.460Z,43.02
2022-12-07T07:20:54.948Z,42.98
2022-12-07T07:21:27.182Z,42.82
2022-12-07T07:22:02.001Z,42.77
2022-12-07T07:22:34.269Z,43.26
2022-12-07T07:23:06.903Z,43.28
2022-12-07T07:23:41.729Z,43.21
2022-12-07T07:24:13.944Z,43.24
2022-12-07T07:24:46.825Z,43.02
2022-12-07T07:25:21.864Z,43.30
2022-12-07T07:25:54.429Z,42.86
2022-12-07T07:26:29.280Z,43.12
2022-12-07T07:27:01.643Z,43.20
2022-12-07T07:27:36.480Z,43.11
2022-12-07T07:28:08.708Z,43.25
2022-12-07T07:28:40.940Z,42.84
2022-12-07T07:29:15.847Z,42.87